Latest Weather Observations for Bundaberg

IDQ60801

Issued at 8:02 pm EST Saturday 5 September 2015 (issued every 30 minutes, with the page automatically refreshed every 10 minutes)

About weather observations | Map of weather stations | Latest weather observations for QLD | Other Formats
Station Details ID: 039128 Name: BUNDABERG AERO Lat: -24.91 Lon: 152.32 Height: 30.82 m
Data from the previous 72 hours. | See also: Recent months at Bundaberg
Date/Time
EST
Temp
°C
App
Temp
°C
Dew
Point
Rel
Hum
%
Delta-T
°C
Wind Press
QNH
hPa
Press
MSL
hPa
Rain
since 9 am
mm
Dir
 
Spd
km/h
Gust
km/h
Spd
kts
Gust
kts
05/08:00pm 17.4 17.2 14.7 84 1.6 SE 9 11 5 6 1020.6 1020.5 0.0
05/07:30pm 17.7 16.7 14.6 82 1.8 SE 13 15 7 8 1020.4 1020.3 0.0
05/07:00pm 18.2 17.5 14.3 78 2.2 SE 11 13 6 7 1020.2 1020.1 0.0
05/06:30pm 18.9 17.2 14.6 76 2.5 ESE 17 19 9 10 1019.7 1019.6 0.0
05/06:00pm 19.6 17.8 14.4 72 3.0 ESE 17 22 9 12 1019.4 1019.3 0.0
05/05:30pm 20.2 17.9 14.1 68 3.5 ESE 19 32 10 17 1019.1 1019.0 0.0
05/05:00pm 21.2 17.7 13.4 61 4.5 ESE 24 32 13 17 1018.7 1018.6 0.0
05/04:30pm 22.1 18.3 13.5 58 5.0 ESE 26 32 14 17 1018.5 1018.4 0.0
05/04:00pm 23.1 19.2 13.3 54 5.7 E 26 33 14 18 1018.2 1018.1 0.0
05/03:30pm 22.5 18.4 11.3 49 6.2 ESE 24 32 13 17 1018.0 1017.9 0.0
05/03:00pm 23.8 19.1 12.1 48 6.6 ESE 28 33 15 18 1017.8 1017.7 0.0
05/02:30pm 24.2 20.0 12.5 48 6.7 E 26 33 14 18 1017.7 1017.6 0.0
05/02:00pm 23.9 20.3 13.2 51 6.2 E 24 30 13 16 1017.9 1017.8 0.0
05/01:30pm 25.2 21.8 12.4 45 7.4 E 22 32 12 17 1018.0 1017.9 0.0
05/01:00pm 24.6 20.6 11.9 45 7.2 E 24 35 13 19 1018.4 1018.3 0.0
05/12:30pm 24.8 20.9 12.1 45 7.3 ESE 24 39 13 21 1018.8 1018.7 0.0
05/12:00pm 25.3 21.0 12.2 44 7.5 ESE 26 35 14 19 1019.3 1019.2 0.0
05/11:30am 24.7 21.3 12.6 47 7.0 ESE 22 35 12 19 1019.9 1019.8 0.0
05/11:00am 22.7 19.8 12.3 52 5.9 SE 19 33 10 18 1020.4 1020.3 0.0
05/10:30am 23.8 21.1 12.8 50 6.3 SE 19 30 10 16 1020.7 1020.6 0.0
05/10:00am 22.4 18.8 12.9 55 5.4 SE 24 33 13 18 1021.1 1021.0 0.0
05/09:30am 21.6 19.0 13.2 59 4.8 SE 19 28 10 15 1021.2 1021.1 0.0
05/09:00am 20.4 18.1 13.1 63 4.1 SSE 17 24 9 13 1021.4 1021.3 0.0
05/08:30am 18.9 17.0 12.9 68 3.4 S 15 20 8 11 1021.4 1021.3 0.0
05/08:00am 17.0 15.3 12.3 74 2.6 S 13 19 7 10 1021.3 1021.2 0.0
05/07:30am 15.9 14.0 11.9 77 2.2 S 13 20 7 11 1021.0 1020.9 0.0
05/07:00am 15.2 13.8 12.1 82 1.7 SSW 11 17 6 9 1020.8 1020.7 0.0
05/06:30am 13.7 12.0 11.2 85 1.3 SSW 11 17 6 9 1020.5 1020.4 0.0
05/06:00am 13.2 11.4 10.7 85 1.3 SSW 11 15 6 8 1020.1 1020.0 0.0
05/05:30am 13.3 11.2 11.0 86 1.2 SSW 13 19 7 10 1019.7 1019.6 0.0
05/05:00am 13.2 11.0 10.9 86 1.2 SSW 13 17 7 9 1019.4 1019.3 0.0
05/04:30am 13.1 11.3 11.0 87 1.1 SSW 11 15 6 8 1019.1 1019.0 0.0
05/04:00am 13.4 11.6 10.9 85 1.3 SSW 11 15 6 8 1018.9 1018.8 0.0
05/03:30am 13.5 11.8 11.2 86 1.2 SSW 11 17 6 9 1018.8 1018.7 0.0
05/03:00am 13.2 11.8 10.9 86 1.2 SW 9 11 5 6 1018.8 1018.7 0.0
05/02:30am 13.3 11.9 10.8 85 1.3 SW 9 11 5 6 1019.0 1018.9 0.0
05/02:00am 13.1 11.6 10.6 85 1.3 SW 9 11 5 6 1019.1 1019.0 0.0
05/01:30am 13.5 12.0 10.7 83 1.5 SW 9 11 5 6 1019.4 1019.3 0.0
05/01:00am 13.6 12.1 10.6 82 1.6 SW 9 9 5 5 1019.8 1019.7 0.0
05/12:30am 13.5 11.9 10.3 81 1.7 SW 9 9 5 5 1020.1 1020.0 0.0
05/12:00am 13.7 12.3 10.9 83 1.5 SW 9 11 5 6 1020.3 1020.2 0.0
 
Date/Time
EST
Temp
°C
App
Temp
°C
Dew
Point
Rel
Hum
%
Delta-T
°C
Wind Press
QNH
hPa
Press
MSL
hPa
Rain
since 9 am
mm
Dir
 
Spd
km/h
Gust
km/h
Spd
kts
Gust
kts
04/11:30pm 13.0 11.6 10.9 87 1.1 SW 9 11 5 6 1020.5 1020.4 0.0
04/11:00pm 12.3 11.1 10.4 88 1.0 WSW 7 9 4 5 1020.7 1020.6 0.0
04/10:30pm 13.5 12.6 10.7 83 1.5 SSW 6 9 3 5 1020.8 1020.7 0.0
04/10:00pm 14.1 13.1 10.9 81 1.7 SSE 7 9 4 5 1020.5 1020.4 0.0
04/09:30pm 15.2 13.9 11.2 77 2.1 SE 9 11 5 6 1020.3 1020.2 0.0
04/09:00pm 15.0 12.9 11.0 77 2.1 SE 13 17 7 9 1020.1 1020.0 0.0
04/08:30pm 15.6 13.1 11.0 74 2.5 ESE 15 17 8 9 1019.8 1019.7 0.0
04/08:00pm 15.3 13.2 9.7 69 2.9 SE 11 15 6 8 1019.6 1019.5 0.0
04/07:30pm 16.6 13.9 10.2 66 3.4 ESE 15 17 8 9 1019.2 1019.1 0.0
04/07:00pm 16.6 14.4 9.5 63 3.7 ESE 11 13 6 7 1018.8 1018.7 0.0
04/06:30pm 17.8 14.6 9.9 60 4.2 ESE 17 20 9 11 1018.5 1018.4 0.0
04/06:00pm 18.9 16.0 11.0 60 4.3 E 17 24 9 13 1018.0 1017.9 0.0
04/05:30pm 19.6 15.8 9.8 53 5.2 E 20 28 11 15 1017.8 1017.7 0.0
04/05:00pm 20.6 15.3 8.6 46 6.3 E 26 32 14 17 1017.5 1017.4 0.0
04/04:30pm 21.9 17.5 8.8 43 7.0 E 22 30 12 16 1017.0 1016.9 0.0
04/04:00pm 22.3 17.7 8.1 40 7.5 ESE 22 28 12 15 1016.6 1016.5 0.0
04/03:30pm 22.8 18.1 7.8 38 7.9 E 22 30 12 16 1016.1 1016.0 0.0
04/03:00pm 24.6 20.6 4.9 28 9.9 S 15 35 8 19 1015.9 1015.8 0.0
04/02:30pm 24.4 20.5 5.2 29 9.7 SSE 15 22 8 12 1015.8 1015.7 0.0
04/02:00pm 24.1 20.0 4.5 28 9.7 S 15 22 8 12 1016.0 1015.9 0.0
04/01:30pm 23.7 19.2 4.1 28 9.7 SSW 17 26 9 14 1016.4 1016.3 0.0
04/01:00pm 23.9 20.0 5.3 30 9.4 S 15 24 8 13 1016.5 1016.4 0.0
04/12:30pm 23.1 17.8 5.1 31 9.0 SSW 22 41 12 22 1017.0 1016.9 0.0
04/12:00pm 22.5 17.7 5.4 33 8.5 SSW 20 30 11 16 1017.4 1017.3 0.0
04/11:30am 21.8 16.9 5.3 34 8.2 SSW 20 32 11 17 1018.0 1017.9 0.0
04/11:00am 21.4 16.0 4.5 33 8.2 SSW 22 35 12 19 1018.3 1018.2 0.0
04/10:34am 21.1 14.8 5.5 36 7.7 SW 28 46 15 25 1018.5 1018.4 0.0
04/10:30am 21.1 14.5 5.9 37 7.6 SW 30 41 16 22 1018.5 1018.4 0.0
04/10:00am 20.2 14.2 5.1 37 7.4 SW 26 37 14 20 1018.8 1018.7 0.0
04/09:30am 20.3 15.6 5.9 39 7.2 SW 20 30 11 16 1019.1 1019.0 0.0
04/09:00am 19.1 14.8 6.9 45 6.1 S 19 26 10 14 1019.0 1018.9 0.0
04/08:30am 18.2 13.6 6.4 46 5.8 SSW 20 32 11 17 1019.0 1018.9 0.0
04/08:00am 16.8 12.1 6.0 49 5.2 SW 20 30 11 16 1019.0 1018.9 0.0
04/07:30am 15.7 12.0 6.4 54 4.5 SW 15 24 8 13 1019.0 1018.9 0.0
04/07:00am 14.2 11.6 6.1 58 3.9 WSW 9 15 5 8 1019.0 1018.9 0.0
04/06:30am 12.4 9.7 5.8 64 3.1 W 9 15 5 8 1018.5 1018.4 0.0
04/06:00am 13.5 10.1 5.7 59 3.7 WSW 13 20 7 11 1018.1 1018.0 0.0
04/05:30am 12.0 9.2 5.0 62 3.2 W 9 13 5 7 1018.1 1018.0 0.0
04/05:00am 12.6 10.1 4.8 59 3.6 W 7 9 4 5 1017.7 1017.6 0.0
04/04:30am 13.0 10.5 4.9 58 3.7 WSW 7 9 4 5 1017.3 1017.2 0.0
04/04:00am 14.4 11.6 5.0 53 4.4 SW 9 13 5 7 1017.2 1017.1 0.0
04/03:30am 14.5 10.9 5.0 53 4.5 SW 13 17 7 9 1016.8 1016.7 0.0
04/03:00am 15.1 11.9 5.3 52 4.6 SSW 11 19 6 10 1016.7 1016.6 0.0
04/02:30am 14.8 11.3 5.3 53 4.5 SW 13 17 7 9 1016.5 1016.4 0.0
04/02:00am 14.5 11.7 5.0 53 4.4 SW 9 13 5 7 1016.6 1016.5 0.0
04/01:30am 15.7 12.4 4.7 48 5.2 SW 11 15 6 8 1016.6 1016.5 0.0
04/01:00am 16.3 12.6 4.7 46 5.5 SW 13 19 7 10 1016.5 1016.4 0.0
04/12:30am 16.9 13.3 4.9 45 5.7 SW 13 22 7 12 1016.4 1016.3 0.0
04/12:00am 16.2 13.2 4.3 45 5.6 WSW 9 15 5 8 1016.3 1016.2 0.0
 
Date/Time
EST
Temp
°C
App
Temp
°C
Dew
Point
Rel
Hum
%
Delta-T
°C
Wind Press
QNH
hPa
Press
MSL
hPa
Rain
since 9 am
mm
Dir
 
Spd
km/h
Gust
km/h
Spd
kts
Gust
kts
03/11:30pm 14.8 12.0 5.1 52 4.6 W 9 9 5 5 1016.4 1016.3 0.0
03/11:00pm 17.6 13.9 4.2 41 6.3 WSW 13 17 7 9 1016.3 1016.2 0.0
03/10:30pm 17.1 13.4 4.4 43 6.0 WSW 13 19 7 10 1016.2 1016.1 0.0
03/10:00pm 14.9 13.1 5.4 53 4.5 WSW 4 7 2 4 1015.9 1015.8 0.0
03/09:30pm 15.4 14.7 6.9 57 4.2 CALM 0 0 0 0 1015.7 1015.6 0.0
03/09:00pm 16.1 13.3 5.1 48 5.2 WSW 9 11 5 6 1015.1 1015.0 0.0
03/08:30pm 15.8 15.5 8.8 63 3.6 CALM 0 0 0 0 1015.0 1014.9 0.0
03/08:00pm 18.9 18.4 7.7 48 5.7 CALM 0 0 0 0 1014.7 1014.6 0.0
03/07:30pm 20.3 18.1 9.5 50 5.8 SW 11 17 6 9 1014.2 1014.1 0.0
03/07:00pm 19.3 19.7 16.2 82 1.9 WNW 9 11 5 6 1013.4 1013.3 0.0
03/06:30pm 20.5 21.0 17.5 83 1.8 NNW 11 15 6 8 1012.9 1012.8 0.0
03/06:00pm 21.5 21.9 19.1 86 1.5 NNW 15 22 8 12 1012.2 1012.1 0.0
03/05:30pm 22.4 22.2 19.4 83 1.9 N 19 24 10 13 1011.6 1011.5 0.0
03/05:00pm 23.4 23.0 19.3 78 2.6 N 20 26 11 14 1011.3 1011.2 0.0
03/04:30pm 23.7 21.7 19.2 76 2.9 N 28 35 15 19 1010.9 1010.8 0.0
03/04:00pm 23.9 21.5 19.2 75 3.0 NNW 30 41 16 22 1010.8 1010.7 0.0
03/03:30pm 24.2 21.2 19.1 73 3.3 NNW 33 46 18 25 1010.3 1010.2 0.0
03/03:00pm 24.7 20.5 19.8 74 3.2 N 41 52 22 28 1009.7 1009.6 0.0
03/02:35pm 26.5 22.2 19.6 66 4.5 N 41 59 22 32 1009.7 1009.6 0.0
03/02:30pm 25.9 21.2 19.5 68 4.1 N 43 57 23 31 1009.5 1009.4 0.0
03/02:00pm 24.2 18.9 18.6 71 3.6 N 44 56 24 30 1009.7 1009.6 0.0
03/01:30pm 25.7 20.2 18.9 66 4.3 N 46 57 25 31 1010.0 1009.9 0.0
03/01:00pm 26.2 21.3 19.1 65 4.6 N 43 50 23 27 1010.8 1010.7 0.0
03/12:30pm 25.9 20.9 18.8 65 4.5 N 43 57 23 31 1011.2 1011.1 0.0
03/12:00pm 26.4 22.4 19.3 65 4.6 N 39 50 21 27 1012.0 1011.9 0.0
03/11:30am 25.3 21.0 18.7 67 4.2 NNW 39 50 21 27 1012.8 1012.7 0.0
03/11:00am 25.3 21.9 19.9 72 3.5 N 37 50 20 27 1013.4 1013.3 0.0
03/10:30am 23.4 19.7 19.1 77 2.7 N 37 50 20 27 1014.2 1014.1 0.0
03/10:04am 23.3 19.4 18.8 76 2.9 N 37 52 20 28 1014.3 1014.2 0.0
03/10:00am 23.6 20.3 19.3 77 2.7 N 35 50 19 27 1014.1 1014.0 0.0
03/09:30am 23.0 18.6 18.5 76 2.8 N 39 56 21 30 1014.5 1014.4 0.0
03/09:17am 23.7 19.7 19.4 77 2.8 N 39 57 21 31 1014.7 1014.6 0.0
03/09:00am 23.3 19.8 19.5 79 2.4 N 37 52 20 28 1014.5 1014.4 0.8
03/08:30am 21.8 18.7 18.8 83 1.9 NNW 33 43 18 23 1015.2 1015.1 0.8
03/08:05am 21.7 18.7 19.1 85 1.6 N 33 44 18 24 1014.8 1014.7 0.8
03/08:00am 21.6 18.2 19.0 85 1.6 N 35 44 19 24 1014.7 1014.6 0.8
03/07:41am 21.1 18.2 18.9 87 1.4 N 32 46 17 25 1014.9 1014.8 0.8
03/07:30am 20.9 18.7 18.8 88 1.3 N 28 33 15 18 1015.2 1015.1 0.8
03/07:00am 20.3 19.8 18.6 90 1.1 NNW 19 28 10 15 1015.2 1015.1 0.8
03/06:30am 20.2 17.9 18.5 90 1.1 N 28 39 15 21 1014.8 1014.7 0.8
03/06:28am 20.2 17.8 18.3 89 1.2 N 28 39 15 21 1014.7 1014.6 0.8
03/06:00am 20.2 19.0 18.5 90 1.1 N 22 32 12 17 1014.4 1014.3 0.8
03/05:30am 20.1 19.6 18.6 91 0.9 N 19 26 10 14 1014.4 1014.3 0.8
03/05:00am 19.8 18.2 18.3 91 0.9 NNE 24 30 13 16 1013.9 1013.8 0.8
03/04:30am 20.0 20.1 18.3 90 1.1 NNW 15 20 8 11 1014.7 1014.6 0.4
03/04:18am 20.0 20.1 18.3 90 1.1 NW 15 20 8 11 1014.8 1014.7 0.2
03/04:00am 20.6 21.0 18.2 86 1.5 WNW 13 20 7 11 1015.1 1015.0 0.0
03/03:48am 20.6 20.9 18.0 85 1.6 WNW 13 20 7 11 1014.9 1014.8 0.0
03/03:30am 20.7 19.8 18.1 85 1.6 NNW 20 28 11 15 1013.9 1013.8 0.0
03/03:00am 20.7 19.7 17.9 84 1.7 N 20 28 11 15 1013.5 1013.4 0.0
03/02:30am 20.7 19.2 17.7 83 1.9 N 22 28 12 15 1013.8 1013.7 0.0
03/02:00am 20.7 19.1 17.5 82 2.0 N 22 30 12 16 1014.3 1014.2 0.0
03/01:30am 20.6 19.1 17.6 83 1.8 N 22 28 12 15 1014.5 1014.4 0.0
03/01:00am 20.5 19.4 17.7 84 1.7 N 20 26 11 14 1014.6 1014.5 0.0
03/12:30am 20.5 19.3 17.5 83 1.8 N 20 26 11 14 1015.4 1015.3 0.0
03/12:00am 20.3 19.3 17.5 84 1.7 N 19 24 10 13 1015.8 1015.7 0.0
 
Date/Time
EST
Temp
°C
App
Temp
°C
Dew
Point
Rel
Hum
%
Delta-T
°C
Wind Press
QNH
hPa
Press
MSL
hPa
Rain
since 9 am
mm
Dir
 
Spd
km/h
Gust
km/h
Spd
kts
Gust
kts
02/11:30pm 19.7 18.8 16.9 84 1.7 N 17 22 9 12 1015.8 1015.7 0.0
02/11:00pm 19.5 18.5 16.7 84 1.7 N 17 20 9 11 1016.0 1015.9 0.0
02/10:30pm 19.5 18.4 16.3 82 1.9 N 17 22 9 12 1016.2 1016.1 0.0
02/10:00pm 19.4 18.1 15.9 80 2.1 N 17 22 9 12 1016.5 1016.4 0.0
02/09:30pm 19.2 17.5 15.7 80 2.1 N 19 22 10 12 1016.1 1016.0 0.0
02/09:00pm 19.2 18.2 15.7 80 2.1 N 15 20 8 11 1016.3 1016.2 0.0
02/08:30pm 19.3 17.9 15.6 79 2.2 N 17 19 9 10 1016.3 1016.2 0.0

Other Formats:

Comma delimited format used in spreadsheet applications
http://www.bom.gov.au/fwo/IDQ60801/IDQ60801.94387.axf

JavaScript Object Notation format (JSON) in row-major order
http://www.bom.gov.au/fwo/IDQ60801/IDQ60801.94387.json